Jarvisburg, North Carolina
Current Conditions -  °F | °C
As of 3:20 AM on Sunday 26 Oct 2014 (Local Time) from KONX Reporting Station
Clear Clear  
Wind Chill: 58°   Ceiling: Unl
Heat Index: 58°   Visibility: 10mi
Dew Point: 42°   Wind: 8mph
Humidity: 56%   Direction: 240°WSW
Pressure: 29.75"   Gusts: NA
Location:  36.2°N, 75.87°W
Report Text: KONX 260720Z AUTO 24007KT 10SM CLR 14/06 A2975 RMK AO2 T01440058
Loading
Personal Weather Stations






























Interactive Weather Map New forecast layout! Learn more

10-Day Weather Forecast

Advertisements
Track Severe Weather on mobile